sensor_id;sensor_type;location;lat;lon;timestamp;P1;durP1;ratioP1;P2;durP2;ratioP2
46713;SDS011;32445;51.376;10.874;2022-12-24T00:00:43;6.13;;;2.22;;
46713;SDS011;32445;51.376;10.874;2022-12-24T00:03:43;7.72;;;2.45;;
46713;SDS011;32445;51.376;10.874;2022-12-24T00:06:43;8.38;;;3.30;;
46713;SDS011;32445;51.376;10.874;2022-12-24T00:09:44;5.82;;;2.63;;
46713;SDS011;32445;51.376;10.874;2022-12-24T00:12:44;7.13;;;3.13;;
46713;SDS011;32445;51.376;10.874;2022-12-24T00:15:44;10.88;;;2.92;;
46713;SDS011;32445;51.376;10.874;2022-12-24T00:18:45;11.80;;;3.05;;
46713;SDS011;32445;51.376;10.874;2022-12-24T00:21:45;8.05;;;3.97;;
46713;SDS011;32445;51.376;10.874;2022-12-24T00:24:46;15.45;;;2.92;;
46713;SDS011;32445;51.376;10.874;2022-12-24T00:27:46;8.77;;;3.38;;
46713;SDS011;32445;51.376;10.874;2022-12-24T00:30:46;8.30;;;3.42;;
46713;SDS011;32445;51.376;10.874;2022-12-24T00:33:49;8.40;;;3.03;;
46713;SDS011;32445;51.376;10.874;2022-12-24T00:36:50;8.68;;;3.42;;
46713;SDS011;32445;51.376;10.874;2022-12-24T00:39:50;9.30;;;3.47;;
46713;SDS011;32445;51.376;10.874;2022-12-24T00:42:51;11.43;;;3.72;;
46713;SDS011;32445;51.376;10.874;2022-12-24T00:45:51;12.52;;;3.53;;
46713;SDS011;32445;51.376;10.874;2022-12-24T00:48:52;10.00;;;3.50;;
46713;SDS011;32445;51.376;10.874;2022-12-24T00:51:53;10.30;;;3.30;;
46713;SDS011;32445;51.376;10.874;2022-12-24T00:54:53;8.65;;;3.40;;
46713;SDS011;32445;51.376;10.874;2022-12-24T00:57:53;7.65;;;3.10;;
46713;SDS011;32445;51.376;10.874;2022-12-24T01:00:53;6.82;;;2.38;;
46713;SDS011;32445;51.376;10.874;2022-12-24T01:03:54;10.85;;;2.55;;
46713;SDS011;32445;51.376;10.874;2022-12-24T01:07:15;7.78;;;3.13;;
46713;SDS011;32445;51.376;10.874;2022-12-24T01:10:18;5.20;;;2.60;;
46713;SDS011;32445;51.376;10.874;2022-12-24T01:13:19;10.65;;;2.83;;
46713;SDS011;32445;51.376;10.874;2022-12-24T01:16:19;15.82;;;2.83;;
46713;SDS011;32445;51.376;10.874;2022-12-24T01:19:20;8.05;;;2.67;;
46713;SDS011;32445;51.376;10.874;2022-12-24T01:22:20;8.45;;;2.70;;
46713;SDS011;32445;51.376;10.874;2022-12-24T01:25:20;9.23;;;3.33;;
46713;SDS011;32445;51.376;10.874;2022-12-24T01:28:21;7.57;;;2.58;;
46713;SDS011;32445;51.376;10.874;2022-12-24T01:31:21;6.95;;;2.72;;
46713;SDS011;32445;51.376;10.874;2022-12-24T01:34:22;5.00;;;2.13;;
46713;SDS011;32445;51.376;10.874;2022-12-24T01:37:22;8.45;;;2.47;;
46713;SDS011;32445;51.376;10.874;2022-12-24T01:40:23;4.93;;;2.05;;
46713;SDS011;32445;51.376;10.874;2022-12-24T01:43:48;9.55;;;2.85;;
46713;SDS011;32445;51.376;10.874;2022-12-24T01:46:49;8.50;;;2.78;;
46713;SDS011;32445;51.376;10.874;2022-12-24T01:49:53;8.57;;;2.75;;
46713;SDS011;32445;51.376;10.874;2022-12-24T01:53:00;4.63;;;2.33;;
46713;SDS011;32445;51.376;10.874;2022-12-24T01:56:03;3.95;;;1.88;;
46713;SDS011;32445;51.376;10.874;2022-12-24T02:02:07;7.05;;;2.40;;
46713;SDS011;32445;51.376;10.874;2022-12-24T02:05:13;5.43;;;2.38;;
46713;SDS011;32445;51.376;10.874;2022-12-24T02:08:17;4.90;;;1.88;;
46713;SDS011;32445;51.376;10.874;2022-12-24T02:11:20;6.53;;;2.40;;
46713;SDS011;32445;51.376;10.874;2022-12-24T02:14:21;7.10;;;1.83;;
46713;SDS011;32445;51.376;10.874;2022-12-24T02:27:25;5.82;;;2.35;;
46713;SDS011;32445;51.376;10.874;2022-12-24T02:30:33;5.72;;;1.95;;
46713;SDS011;32445;51.376;10.874;2022-12-24T02:34:35;6.18;;;2.20;;
46713;SDS011;32445;51.376;10.874;2022-12-24T02:37:15;3.67;;;1.95;;
46713;SDS011;32445;51.376;10.874;2022-12-24T02:40:22;5.80;;;1.77;;
46713;SDS011;32445;51.376;10.874;2022-12-24T02:43:30;8.98;;;2.25;;
46713;SDS011;32445;51.376;10.874;2022-12-24T02:46:34;4.95;;;1.98;;
46713;SDS011;32445;51.376;10.874;2022-12-24T02:49:35;6.22;;;1.73;;
46713;SDS011;32445;51.376;10.874;2022-12-24T02:52:37;4.32;;;1.88;;
46713;SDS011;32445;51.376;10.874;2022-12-24T03:05:56;4.25;;;1.10;;
46713;SDS011;32445;51.376;10.874;2022-12-24T03:09:16;4.40;;;1.65;;
46713;SDS011;32445;51.376;10.874;2022-12-24T03:12:19;2.78;;;1.17;;
46713;SDS011;32445;51.376;10.874;2022-12-24T03:15:27;2.90;;;1.42;;
46713;SDS011;32445;51.376;10.874;2022-12-24T03:18:31;3.20;;;1.38;;
46713;SDS011;32445;51.376;10.874;2022-12-24T03:21:32;2.75;;;1.27;;
46713;SDS011;32445;51.376;10.874;2022-12-24T03:24:37;2.90;;;1.17;;
46713;SDS011;32445;51.376;10.874;2022-12-24T03:27:37;3.60;;;1.20;;
46713;SDS011;32445;51.376;10.874;2022-12-24T03:30:42;1.95;;;1.25;;
46713;SDS011;32445;51.376;10.874;2022-12-24T03:33:44;5.13;;;1.60;;
46713;SDS011;32445;51.376;10.874;2022-12-24T03:36:45;2.53;;;1.43;;
46713;SDS011;32445;51.376;10.874;2022-12-24T03:39:46;3.72;;;1.60;;
46713;SDS011;32445;51.376;10.874;2022-12-24T03:42:47;2.33;;;1.30;;
46713;SDS011;32445;51.376;10.874;2022-12-24T03:45:47;2.55;;;1.55;;
46713;SDS011;32445;51.376;10.874;2022-12-24T03:48:47;6.57;;;1.98;;
46713;SDS011;32445;51.376;10.874;2022-12-24T03:51:48;6.75;;;1.75;;
46713;SDS011;32445;51.376;10.874;2022-12-24T03:54:48;7.13;;;1.75;;
46713;SDS011;32445;51.376;10.874;2022-12-24T03:57:49;2.80;;;2.10;;
46713;SDS011;32445;51.376;10.874;2022-12-24T04:00:49;6.95;;;1.98;;
46713;SDS011;32445;51.376;10.874;2022-12-24T04:03:54;7.18;;;2.78;;
46713;SDS011;32445;51.376;10.874;2022-12-24T04:06:54;6.30;;;2.30;;
46713;SDS011;32445;51.376;10.874;2022-12-24T04:09:55;3.67;;;1.73;;
46713;SDS011;32445;51.376;10.874;2022-12-24T04:12:55;5.95;;;2.00;;
46713;SDS011;32445;51.376;10.874;2022-12-24T04:15:57;8.13;;;3.42;;
46713;SDS011;32445;51.376;10.874;2022-12-24T04:18:58;5.38;;;2.30;;
46713;SDS011;32445;51.376;10.874;2022-12-24T04:21:58;6.53;;;2.38;;
46713;SDS011;32445;51.376;10.874;2022-12-24T04:24:59;5.85;;;2.00;;
46713;SDS011;32445;51.376;10.874;2022-12-24T04:27:59;7.97;;;2.95;;
46713;SDS011;32445;51.376;10.874;2022-12-24T04:31:00;9.13;;;1.90;;
46713;SDS011;32445;51.376;10.874;2022-12-24T04:34:02;5.00;;;2.25;;
46713;SDS011;32445;51.376;10.874;2022-12-24T04:37:05;6.10;;;2.58;;
46713;SDS011;32445;51.376;10.874;2022-12-24T04:40:05;8.75;;;2.30;;
46713;SDS011;32445;51.376;10.874;2022-12-24T04:43:06;5.25;;;2.22;;
46713;SDS011;32445;51.376;10.874;2022-12-24T04:46:07;7.93;;;2.95;;
46713;SDS011;32445;51.376;10.874;2022-12-24T04:49:10;14.18;;;2.92;;
46713;SDS011;32445;51.376;10.874;2022-12-24T04:52:10;6.93;;;2.78;;
46713;SDS011;32445;51.376;10.874;2022-12-24T04:55:10;5.30;;;2.22;;
46713;SDS011;32445;51.376;10.874;2022-12-24T04:58:11;5.88;;;2.63;;
46713;SDS011;32445;51.376;10.874;2022-12-24T05:01:13;10.03;;;2.97;;
46713;SDS011;32445;51.376;10.874;2022-12-24T05:04:19;7.15;;;2.15;;
46713;SDS011;32445;51.376;10.874;2022-12-24T05:07:19;10.00;;;2.53;;
46713;SDS011;32445;51.376;10.874;2022-12-24T05:10:19;6.68;;;3.08;;
46713;SDS011;32445;51.376;10.874;2022-12-24T05:13:20;9.20;;;2.50;;
46713;SDS011;32445;51.376;10.874;2022-12-24T05:16:21;15.13;;;3.63;;
46713;SDS011;32445;51.376;10.874;2022-12-24T05:19:22;7.05;;;2.78;;
46713;SDS011;32445;51.376;10.874;2022-12-24T05:22:22;8.82;;;3.03;;
46713;SDS011;32445;51.376;10.874;2022-12-24T05:25:41;7.65;;;2.97;;
46713;SDS011;32445;51.376;10.874;2022-12-24T05:29:01;11.23;;;3.50;;
46713;SDS011;32445;51.376;10.874;2022-12-24T05:32:02;7.53;;;3.35;;
46713;SDS011;32445;51.376;10.874;2022-12-24T05:35:03;14.77;;;3.50;;
46713;SDS011;32445;51.376;10.874;2022-12-24T05:38:03;11.77;;;3.28;;
46713;SDS011;32445;51.376;10.874;2022-12-24T05:41:03;11.73;;;3.60;;
46713;SDS011;32445;51.376;10.874;2022-12-24T05:44:05;12.43;;;3.80;;
46713;SDS011;32445;51.376;10.874;2022-12-24T05:47:05;13.23;;;3.22;;
46713;SDS011;32445;51.376;10.874;2022-12-24T05:50:05;11.98;;;3.65;;
46713;SDS011;32445;51.376;10.874;2022-12-24T05:53:06;9.13;;;2.33;;
46713;SDS011;32445;51.376;10.874;2022-12-24T05:56:08;9.43;;;3.30;;
46713;SDS011;32445;51.376;10.874;2022-12-24T05:59:10;9.68;;;3.25;;
46713;SDS011;32445;51.376;10.874;2022-12-24T06:02:10;9.95;;;3.17;;
46713;SDS011;32445;51.376;10.874;2022-12-24T06:05:10;10.27;;;3.08;;
46713;SDS011;32445;51.376;10.874;2022-12-24T06:08:11;10.05;;;2.72;;
46713;SDS011;32445;51.376;10.874;2022-12-24T06:11:12;10.45;;;3.65;;
46713;SDS011;32445;51.376;10.874;2022-12-24T06:14:14;8.52;;;2.83;;
46713;SDS011;32445;51.376;10.874;2022-12-24T06:17:14;16.33;;;3.70;;
46713;SDS011;32445;51.376;10.874;2022-12-24T06:20:15;9.13;;;3.55;;
46713;SDS011;32445;51.376;10.874;2022-12-24T06:23:15;11.70;;;3.75;;
46713;SDS011;32445;51.376;10.874;2022-12-24T06:26:17;17.73;;;3.55;;
46713;SDS011;32445;51.376;10.874;2022-12-24T06:29:19;9.15;;;3.35;;
46713;SDS011;32445;51.376;10.874;2022-12-24T06:32:19;14.00;;;3.95;;
46713;SDS011;32445;51.376;10.874;2022-12-24T06:35:20;12.70;;;3.45;;
46713;SDS011;32445;51.376;10.874;2022-12-24T06:38:20;9.20;;;4.05;;
46713;SDS011;32445;51.376;10.874;2022-12-24T06:41:21;8.45;;;3.45;;
46713;SDS011;32445;51.376;10.874;2022-12-24T06:44:24;15.85;;;4.75;;
46713;SDS011;32445;51.376;10.874;2022-12-24T06:47:25;6.53;;;3.30;;
46713;SDS011;32445;51.376;10.874;2022-12-24T06:50:25;9.48;;;3.40;;
46713;SDS011;32445;51.376;10.874;2022-12-24T06:53:26;14.75;;;4.15;;
46713;SDS011;32445;51.376;10.874;2022-12-24T06:56:27;8.00;;;2.78;;
46713;SDS011;32445;51.376;10.874;2022-12-24T06:59:27;13.20;;;3.17;;
46713;SDS011;32445;51.376;10.874;2022-12-24T07:02:27;12.00;;;3.50;;
46713;SDS011;32445;51.376;10.874;2022-12-24T07:05:28;11.23;;;4.05;;
46713;SDS011;32445;51.376;10.874;2022-12-24T07:08:28;18.60;;;4.63;;
46713;SDS011;32445;51.376;10.874;2022-12-24T07:11:32;10.35;;;3.58;;
46713;SDS011;32445;51.376;10.874;2022-12-24T07:14:32;14.15;;;3.05;;
46713;SDS011;32445;51.376;10.874;2022-12-24T07:17:33;12.32;;;4.43;;
46713;SDS011;32445;51.376;10.874;2022-12-24T07:20:33;14.50;;;3.20;;
46713;SDS011;32445;51.376;10.874;2022-12-24T07:23:34;24.33;;;4.70;;
46713;SDS011;32445;51.376;10.874;2022-12-24T07:26:34;9.00;;;3.28;;
46713;SDS011;32445;51.376;10.874;2022-12-24T07:29:34;11.98;;;4.18;;
46713;SDS011;32445;51.376;10.874;2022-12-24T07:32:35;14.55;;;4.47;;
46713;SDS011;32445;51.376;10.874;2022-12-24T07:35:35;12.15;;;3.85;;
46713;SDS011;32445;51.376;10.874;2022-12-24T07:38:36;18.65;;;4.18;;
46713;SDS011;32445;51.376;10.874;2022-12-24T07:41:37;10.20;;;3.73;;
46713;SDS011;32445;51.376;10.874;2022-12-24T07:44:37;14.35;;;3.45;;
46713;SDS011;32445;51.376;10.874;2022-12-24T07:47:37;13.88;;;4.40;;
46713;SDS011;32445;51.376;10.874;2022-12-24T07:50:38;15.10;;;3.95;;
46713;SDS011;32445;51.376;10.874;2022-12-24T07:53:38;15.45;;;4.45;;
46713;SDS011;32445;51.376;10.874;2022-12-24T07:56:38;12.20;;;3.67;;
46713;SDS011;32445;51.376;10.874;2022-12-24T07:59:39;17.30;;;4.88;;
46713;SDS011;32445;51.376;10.874;2022-12-24T08:02:39;9.55;;;3.22;;
46713;SDS011;32445;51.376;10.874;2022-12-24T08:05:39;8.57;;;4.15;;
46713;SDS011;32445;51.376;10.874;2022-12-24T08:08:40;14.68;;;5.05;;
46713;SDS011;32445;51.376;10.874;2022-12-24T08:11:40;10.00;;;4.05;;
46713;SDS011;32445;51.376;10.874;2022-12-24T08:14:41;19.35;;;3.78;;
46713;SDS011;32445;51.376;10.874;2022-12-24T08:17:42;15.20;;;4.53;;
46713;SDS011;32445;51.376;10.874;2022-12-24T08:20:43;10.65;;;4.03;;
46713;SDS011;32445;51.376;10.874;2022-12-24T08:23:45;14.48;;;3.50;;
46713;SDS011;32445;51.376;10.874;2022-12-24T08:26:45;9.65;;;3.78;;
46713;SDS011;32445;51.376;10.874;2022-12-24T08:29:46;7.68;;;3.45;;
46713;SDS011;32445;51.376;10.874;2022-12-24T08:32:46;11.23;;;3.78;;
46713;SDS011;32445;51.376;10.874;2022-12-24T08:35:50;10.98;;;3.35;;
46713;SDS011;32445;51.376;10.874;2022-12-24T08:38:52;11.88;;;4.00;;
46713;SDS011;32445;51.376;10.874;2022-12-24T08:41:52;13.10;;;2.97;;
46713;SDS011;32445;51.376;10.874;2022-12-24T08:44:52;10.75;;;3.97;;
46713;SDS011;32445;51.376;10.874;2022-12-24T08:47:53;11.57;;;4.25;;
46713;SDS011;32445;51.376;10.874;2022-12-24T08:50:53;18.35;;;4.30;;
46713;SDS011;32445;51.376;10.874;2022-12-24T08:53:53;20.55;;;3.80;;
46713;SDS011;32445;51.376;10.874;2022-12-24T08:56:54;9.98;;;3.25;;
46713;SDS011;32445;51.376;10.874;2022-12-24T08:59:54;10.32;;;3.88;;
46713;SDS011;32445;51.376;10.874;2022-12-24T09:02:54;13.25;;;3.92;;
46713;SDS011;32445;51.376;10.874;2022-12-24T09:05:55;10.80;;;3.90;;
46713;SDS011;32445;51.376;10.874;2022-12-24T09:08:56;10.75;;;3.38;;
46713;SDS011;32445;51.376;10.874;2022-12-24T09:11:56;7.55;;;3.72;;
46713;SDS011;32445;51.376;10.874;2022-12-24T09:14:56;13.10;;;3.75;;
46713;SDS011;32445;51.376;10.874;2022-12-24T09:17:57;9.35;;;3.28;;
46713;SDS011;32445;51.376;10.874;2022-12-24T09:21:00;16.33;;;3.83;;
46713;SDS011;32445;51.376;10.874;2022-12-24T09:27:03;10.65;;;4.43;;
46713;SDS011;32445;51.376;10.874;2022-12-24T09:30:04;9.80;;;3.58;;
46713;SDS011;32445;51.376;10.874;2022-12-24T09:33:05;6.80;;;2.63;;
46713;SDS011;32445;51.376;10.874;2022-12-24T09:36:06;12.90;;;3.28;;
46713;SDS011;32445;51.376;10.874;2022-12-24T09:39:06;14.13;;;4.18;;
46713;SDS011;32445;51.376;10.874;2022-12-24T09:42:15;7.50;;;3.72;;
46713;SDS011;32445;51.376;10.874;2022-12-24T09:45:34;8.95;;;3.40;;
46713;SDS011;32445;51.376;10.874;2022-12-24T09:48:39;12.85;;;3.58;;
46713;SDS011;32445;51.376;10.874;2022-12-24T09:51:45;12.38;;;3.92;;
46713;SDS011;32445;51.376;10.874;2022-12-24T09:54:53;7.97;;;3.65;;
46713;SDS011;32445;51.376;10.874;2022-12-24T09:58:21;5.88;;;2.58;;
46713;SDS011;32445;51.376;10.874;2022-12-24T10:01:42;7.10;;;2.63;;
46713;SDS011;32445;51.376;10.874;2022-12-24T10:04:43;13.90;;;4.00;;
46713;SDS011;32445;51.376;10.874;2022-12-24T10:10:53;6.85;;;3.40;;
46713;SDS011;32445;51.376;10.874;2022-12-24T10:24:17;7.95;;;2.35;;
46713;SDS011;32445;51.376;10.874;2022-12-24T10:27:23;6.03;;;3.17;;
46713;SDS011;32445;51.376;10.874;2022-12-24T10:30:28;6.68;;;2.55;;
46713;SDS011;32445;51.376;10.874;2022-12-24T10:34:04;8.02;;;3.22;;
46713;SDS011;32445;51.376;10.874;2022-12-24T10:37:05;7.57;;;2.40;;
46713;SDS011;32445;51.376;10.874;2022-12-24T10:40:10;6.47;;;3.20;;
46713;SDS011;32445;51.376;10.874;2022-12-24T10:43:32;3.60;;;2.28;;
46713;SDS011;32445;51.376;10.874;2022-12-24T10:46:37;5.95;;;2.70;;
46713;SDS011;32445;51.376;10.874;2022-12-24T10:49:48;4.13;;;2.63;;
46713;SDS011;32445;51.376;10.874;2022-12-24T10:52:59;7.53;;;2.40;;
46713;SDS011;32445;51.376;10.874;2022-12-24T10:56:06;5.60;;;2.40;;
46713;SDS011;32445;51.376;10.874;2022-12-24T11:02:34;8.55;;;2.53;;
46713;SDS011;32445;51.376;10.874;2022-12-24T11:05:36;9.13;;;2.78;;
46713;SDS011;32445;51.376;10.874;2022-12-24T11:08:39;15.93;;;3.45;;
46713;SDS011;32445;51.376;10.874;2022-12-24T11:11:42;10.93;;;3.28;;
46713;SDS011;32445;51.376;10.874;2022-12-24T11:14:43;5.18;;;2.75;;
46713;SDS011;32445;51.376;10.874;2022-12-24T11:17:58;6.13;;;3.17;;
46713;SDS011;32445;51.376;10.874;2022-12-24T11:21:03;9.07;;;2.75;;
46713;SDS011;32445;51.376;10.874;2022-12-24T11:27:30;5.32;;;2.40;;
46713;SDS011;32445;51.376;10.874;2022-12-24T11:30:33;10.45;;;3.08;;
46713;SDS011;32445;51.376;10.874;2022-12-24T11:33:44;8.87;;;3.97;;
46713;SDS011;32445;51.376;10.874;2022-12-24T11:36:46;4.43;;;1.75;;
46713;SDS011;32445;51.376;10.874;2022-12-24T11:39:54;7.80;;;3.58;;
46713;SDS011;32445;51.376;10.874;2022-12-24T11:42:59;6.60;;;2.50;;
46713;SDS011;32445;51.376;10.874;2022-12-24T11:46:00;9.23;;;2.67;;
46713;SDS011;32445;51.376;10.874;2022-12-24T11:49:15;5.47;;;2.22;;
46713;SDS011;32445;51.376;10.874;2022-12-24T11:52:22;5.65;;;2.85;;
46713;SDS011;32445;51.376;10.874;2022-12-24T11:55:28;10.65;;;2.65;;
46713;SDS011;32445;51.376;10.874;2022-12-24T12:01:46;5.20;;;2.65;;
46713;SDS011;32445;51.376;10.874;2022-12-24T12:05:02;8.32;;;3.05;;
46713;SDS011;32445;51.376;10.874;2022-12-24T12:08:09;8.50;;;3.25;;
46713;SDS011;32445;51.376;10.874;2022-12-24T12:11:16;7.03;;;2.92;;
46713;SDS011;32445;51.376;10.874;2022-12-24T12:14:19;6.87;;;3.23;;
46713;SDS011;32445;51.376;10.874;2022-12-24T12:20:33;13.13;;;3.33;;
46713;SDS011;32445;51.376;10.874;2022-12-24T12:23:43;12.48;;;3.25;;
46713;SDS011;32445;51.376;10.874;2022-12-24T12:26:51;10.10;;;3.95;;
46713;SDS011;32445;51.376;10.874;2022-12-24T12:30:16;12.18;;;3.58;;
46713;SDS011;32445;51.376;10.874;2022-12-24T12:33:22;12.57;;;3.60;;
46713;SDS011;32445;51.376;10.874;2022-12-24T12:36:48;7.75;;;3.28;;
46713;SDS011;32445;51.376;10.874;2022-12-24T12:39:56;5.75;;;3.30;;
46713;SDS011;32445;51.376;10.874;2022-12-24T12:43:00;5.88;;;2.75;;
46713;SDS011;32445;51.376;10.874;2022-12-24T12:46:19;11.55;;;4.25;;
46713;SDS011;32445;51.376;10.874;2022-12-24T12:49:32;13.50;;;3.65;;
46713;SDS011;32445;51.376;10.874;2022-12-24T12:56:13;12.48;;;3.03;;
46713;SDS011;32445;51.376;10.874;2022-12-24T12:59:33;8.85;;;2.83;;
46713;SDS011;32445;51.376;10.874;2022-12-24T13:06:07;9.60;;;3.97;;
46713;SDS011;32445;51.376;10.874;2022-12-24T13:22:22;9.02;;;4.38;;
46713;SDS011;32445;51.376;10.874;2022-12-24T13:25:25;14.35;;;5.18;;
46713;SDS011;32445;51.376;10.874;2022-12-24T13:28:34;11.23;;;4.50;;
46713;SDS011;32445;51.376;10.874;2022-12-24T13:31:36;16.45;;;4.80;;
46713;SDS011;32445;51.376;10.874;2022-12-24T13:34:36;11.13;;;4.60;;
46713;SDS011;32445;51.376;10.874;2022-12-24T13:37:37;7.37;;;3.87;;
46713;SDS011;32445;51.376;10.874;2022-12-24T13:40:37;12.57;;;4.82;;
46713;SDS011;32445;51.376;10.874;2022-12-24T13:44:00;10.32;;;4.25;;
46713;SDS011;32445;51.376;10.874;2022-12-24T13:50:20;9.18;;;4.82;;
46713;SDS011;32445;51.376;10.874;2022-12-24T13:56:44;10.20;;;3.85;;
46713;SDS011;32445;51.376;10.874;2022-12-24T13:59:52;9.90;;;4.80;;
46713;SDS011;32445;51.376;10.874;2022-12-24T14:06:23;13.88;;;4.80;;
46713;SDS011;32445;51.376;10.874;2022-12-24T14:09:34;9.77;;;4.10;;
46713;SDS011;32445;51.376;10.874;2022-12-24T14:12:45;11.98;;;4.97;;
46713;SDS011;32445;51.376;10.874;2022-12-24T14:22:02;9.37;;;2.90;;
46713;SDS011;32445;51.376;10.874;2022-12-24T14:25:20;13.93;;;4.38;;
46713;SDS011;32445;51.376;10.874;2022-12-24T14:28:23;11.05;;;3.78;;
46713;SDS011;32445;51.376;10.874;2022-12-24T14:31:27;9.70;;;3.88;;
46713;SDS011;32445;51.376;10.874;2022-12-24T14:34:28;10.50;;;3.67;;
46713;SDS011;32445;51.376;10.874;2022-12-24T14:37:29;10.95;;;3.60;;
46713;SDS011;32445;51.376;10.874;2022-12-24T14:40:32;12.90;;;3.88;;
46713;SDS011;32445;51.376;10.874;2022-12-24T14:43:59;11.85;;;4.15;;
46713;SDS011;32445;51.376;10.874;2022-12-24T14:47:16;11.18;;;4.00;;
46713;SDS011;32445;51.376;10.874;2022-12-24T15:00:19;9.82;;;3.97;;
46713;SDS011;32445;51.376;10.874;2022-12-24T15:03:20;12.98;;;4.57;;
46713;SDS011;32445;51.376;10.874;2022-12-24T15:06:23;11.70;;;4.97;;
46713;SDS011;32445;51.376;10.874;2022-12-24T15:09:25;13.30;;;4.40;;
46713;SDS011;32445;51.376;10.874;2022-12-24T15:12:29;16.08;;;6.80;;
46713;SDS011;32445;51.376;10.874;2022-12-24T15:18:32;11.93;;;5.65;;
46713;SDS011;32445;51.376;10.874;2022-12-24T15:21:36;10.85;;;4.93;;
46713;SDS011;32445;51.376;10.874;2022-12-24T15:24:45;9.32;;;4.40;;
46713;SDS011;32445;51.376;10.874;2022-12-24T15:27:46;12.20;;;4.60;;
46713;SDS011;32445;51.376;10.874;2022-12-24T15:30:47;23.38;;;5.18;;
46713;SDS011;32445;51.376;10.874;2022-12-24T15:33:48;13.75;;;4.13;;
46713;SDS011;32445;51.376;10.874;2022-12-24T15:36:50;14.63;;;4.63;;
46713;SDS011;32445;51.376;10.874;2022-12-24T15:40:33;11.43;;;4.53;;
46713;SDS011;32445;51.376;10.874;2022-12-24T15:43:19;7.53;;;4.00;;
46713;SDS011;32445;51.376;10.874;2022-12-24T15:46:21;11.73;;;4.03;;
46713;SDS011;32445;51.376;10.874;2022-12-24T15:49:27;11.18;;;4.70;;
46713;SDS011;32445;51.376;10.874;2022-12-24T15:52:30;9.15;;;4.30;;
46713;SDS011;32445;51.376;10.874;2022-12-24T15:55:38;12.53;;;5.17;;
46713;SDS011;32445;51.376;10.874;2022-12-24T15:58:46;14.23;;;4.65;;
46713;SDS011;32445;51.376;10.874;2022-12-24T16:01:46;9.68;;;4.07;;
46713;SDS011;32445;51.376;10.874;2022-12-24T16:04:47;12.65;;;4.72;;
46713;SDS011;32445;51.376;10.874;2022-12-24T16:08:00;17.65;;;6.03;;
46713;SDS011;32445;51.376;10.874;2022-12-24T16:14:23;13.20;;;5.82;;
46713;SDS011;32445;51.376;10.874;2022-12-24T16:17:25;16.35;;;5.32;;
46713;SDS011;32445;51.376;10.874;2022-12-24T16:20:27;10.10;;;5.07;;
46713;SDS011;32445;51.376;10.874;2022-12-24T16:23:30;8.07;;;4.65;;
46713;SDS011;32445;51.376;10.874;2022-12-24T16:26:36;10.93;;;4.30;;
46713;SDS011;32445;51.376;10.874;2022-12-24T16:29:37;12.98;;;4.80;;
46713;SDS011;32445;51.376;10.874;2022-12-24T16:32:38;9.65;;;5.10;;
46713;SDS011;32445;51.376;10.874;2022-12-24T16:35:40;8.77;;;4.82;;
46713;SDS011;32445;51.376;10.874;2022-12-24T16:38:40;14.30;;;6.00;;
46713;SDS011;32445;51.376;10.874;2022-12-24T16:42:02;10.77;;;5.43;;
46713;SDS011;32445;51.376;10.874;2022-12-24T16:45:21;10.95;;;4.97;;
46713;SDS011;32445;51.376;10.874;2022-12-24T16:48:23;12.65;;;6.15;;
46713;SDS011;32445;51.376;10.874;2022-12-24T16:51:24;13.45;;;5.22;;
46713;SDS011;32445;51.376;10.874;2022-12-24T16:54:24;15.60;;;6.55;;
46713;SDS011;32445;51.376;10.874;2022-12-24T16:57:25;8.80;;;4.55;;
46713;SDS011;32445;51.376;10.874;2022-12-24T17:00:26;17.90;;;5.07;;
46713;SDS011;32445;51.376;10.874;2022-12-24T17:03:26;10.45;;;4.70;;
46713;SDS011;32445;51.376;10.874;2022-12-24T17:06:26;18.92;;;5.47;;
46713;SDS011;32445;51.376;10.874;2022-12-24T17:09:29;14.25;;;5.13;;
46713;SDS011;32445;51.376;10.874;2022-12-24T17:12:29;13.43;;;4.75;;
46713;SDS011;32445;51.376;10.874;2022-12-24T17:15:30;14.98;;;5.20;;
46713;SDS011;32445;51.376;10.874;2022-12-24T17:18:30;12.52;;;6.13;;
46713;SDS011;32445;51.376;10.874;2022-12-24T17:21:30;9.70;;;4.65;;
46713;SDS011;32445;51.376;10.874;2022-12-24T17:24:31;16.80;;;5.78;;
46713;SDS011;32445;51.376;10.874;2022-12-24T17:27:32;12.60;;;4.93;;
46713;SDS011;32445;51.376;10.874;2022-12-24T17:30:32;12.55;;;5.93;;
46713;SDS011;32445;51.376;10.874;2022-12-24T17:33:32;16.20;;;5.78;;
46713;SDS011;32445;51.376;10.874;2022-12-24T17:36:33;11.70;;;5.82;;
46713;SDS011;32445;51.376;10.874;2022-12-24T17:39:34;14.85;;;5.50;;
46713;SDS011;32445;51.376;10.874;2022-12-24T17:42:34;12.30;;;5.38;;
46713;SDS011;32445;51.376;10.874;2022-12-24T17:45:38;12.00;;;5.95;;
46713;SDS011;32445;51.376;10.874;2022-12-24T17:48:40;13.38;;;5.22;;
46713;SDS011;32445;51.376;10.874;2022-12-24T17:51:41;15.67;;;7.73;;
46713;SDS011;32445;51.376;10.874;2022-12-24T17:54:41;13.43;;;5.15;;
46713;SDS011;32445;51.376;10.874;2022-12-24T17:57:42;17.42;;;5.53;;
46713;SDS011;32445;51.376;10.874;2022-12-24T18:00:42;13.32;;;4.68;;
46713;SDS011;32445;51.376;10.874;2022-12-24T18:03:43;9.20;;;5.45;;
46713;SDS011;32445;51.376;10.874;2022-12-24T18:06:44;12.05;;;4.85;;
46713;SDS011;32445;51.376;10.874;2022-12-24T18:09:44;12.57;;;5.07;;
46713;SDS011;32445;51.376;10.874;2022-12-24T18:12:45;9.13;;;4.30;;
46713;SDS011;32445;51.376;10.874;2022-12-24T18:15:45;9.50;;;4.45;;
46713;SDS011;32445;51.376;10.874;2022-12-24T18:18:45;12.50;;;4.60;;
46713;SDS011;32445;51.376;10.874;2022-12-24T18:21:46;16.43;;;5.53;;
46713;SDS011;32445;51.376;10.874;2022-12-24T18:24:47;14.23;;;5.18;;
46713;SDS011;32445;51.376;10.874;2022-12-24T18:27:47;9.38;;;4.85;;
46713;SDS011;32445;51.376;10.874;2022-12-24T18:30:55;11.63;;;5.60;;
46713;SDS011;32445;51.376;10.874;2022-12-24T18:33:57;9.73;;;5.05;;
46713;SDS011;32445;51.376;10.874;2022-12-24T18:36:58;9.60;;;4.07;;
46713;SDS011;32445;51.376;10.874;2022-12-24T18:39:59;8.63;;;4.30;;
46713;SDS011;32445;51.376;10.874;2022-12-24T18:42:59;17.88;;;7.78;;
46713;SDS011;32445;51.376;10.874;2022-12-24T18:46:04;8.68;;;5.45;;
46713;SDS011;32445;51.376;10.874;2022-12-24T18:49:05;11.65;;;6.18;;
46713;SDS011;32445;51.376;10.874;2022-12-24T18:52:06;14.90;;;8.43;;
46713;SDS011;32445;51.376;10.874;2022-12-24T18:58:08;8.23;;;5.57;;
46713;SDS011;32445;51.376;10.874;2022-12-24T19:01:19;9.45;;;5.68;;
46713;SDS011;32445;51.376;10.874;2022-12-24T19:04:24;9.90;;;5.47;;
46713;SDS011;32445;51.376;10.874;2022-12-24T19:07:26;9.13;;;5.13;;
46713;SDS011;32445;51.376;10.874;2022-12-24T19:10:26;10.23;;;5.25;;
46713;SDS011;32445;51.376;10.874;2022-12-24T19:13:26;9.10;;;4.28;;
46713;SDS011;32445;51.376;10.874;2022-12-24T19:16:31;10.02;;;4.82;;
46713;SDS011;32445;51.376;10.874;2022-12-24T19:19:33;17.52;;;4.57;;
46713;SDS011;32445;51.376;10.874;2022-12-24T19:22:33;7.82;;;5.10;;
46713;SDS011;32445;51.376;10.874;2022-12-24T19:25:34;11.75;;;4.75;;
46713;SDS011;32445;51.376;10.874;2022-12-24T19:28:34;7.72;;;4.65;;
46713;SDS011;32445;51.376;10.874;2022-12-24T19:31:35;13.80;;;5.80;;
46713;SDS011;32445;51.376;10.874;2022-12-24T19:34:35;8.93;;;4.75;;
46713;SDS011;32445;51.376;10.874;2022-12-24T19:37:35;15.13;;;5.25;;
46713;SDS011;32445;51.376;10.874;2022-12-24T19:40:36;9.27;;;4.63;;
46713;SDS011;32445;51.376;10.874;2022-12-24T19:43:37;14.07;;;5.13;;
46713;SDS011;32445;51.376;10.874;2022-12-24T19:46:42;12.15;;;5.50;;
46713;SDS011;32445;51.376;10.874;2022-12-24T19:49:42;7.20;;;5.10;;